GVBA

Details ICAO GVBA (BVC)
Name Rabil
Region Cape Verde
Timezone Atlantic/Cape_Verde (UTC-1.0)
Plans Departing 17
Arriving 38
Stats Elevation 69 ft / 21 m (AMSL)
Location 16.136532° -22.888897°
Runways 1
Magnetic Variation 9.347° W
Sunrise 2017-12-14 07:52:24 UTC / 2017-12-14 06:52:24 Local
Sunset 2017-12-14 19:02:56 UTC / 2017-12-14 18:02:56 Local
Advertisement - Login to hide

Runways

ID Width Length Bearing (true) Bearing (mag) Surface Threshold Offset Overrun Length
03 98 ft / 30 m 4,025 ft / 1,227 m 16.53° 25.88° Asphalt 0 ft / 0 m 0 ft / 0 m
21 98 ft / 30 m 4,025 ft / 1,227 m 196.53° 205.88° Asphalt 0 ft / 0 m 0 ft / 0 m

Map

Weather


0- 5 10 15 20 25 30 35+ Temperature / ° C

Clouds and Precipitation
Forecast for 2017-12-14 06:00 UTC. Updated 2 hours ago

Ground ~20,000 ft ~40,000 ft Winds

METAR

Not found

TAF

TAF GVBA 132300Z 1400/1506 06015KT 9999 BKN015 BECMG 1413/1415 5000 HZ SCT015
Warning: Do not use this data for real-world aviation or navigation. No guarantee of current accuracy is given.